Time;durP1;ratioP1;P1;durP2;ratioP2;P2;SDS_P1;SDS_P2;PMS_P1;PMS_P2;Temp;Humidity;BMP_temperature;BMP_pressure;BME280_temperature;BME280_humidity;BME280_pressure;Samples;Min_cycle;Max_cycle;Signal;HPM_P1;HPM_P2
2023/08/16 00:00:34;;;;;;;7.60;6.77;;;23.40;99.90;;;;;;4979449;28;20513;-84
2023/08/16 00:03:12;;;;;;;6.70;6.10;;;23.00;99.90;;;;;;4992144;28;20461;-83
2023/08/16 00:05:52;;;;;;;6.30;5.70;;;22.20;99.90;;;;;;4982223;28;20514;-84
2023/08/16 00:08:22;;;;;;;6.67;6.03;;;22.80;99.90;;;;;;5002189;28;20522;-84
2023/08/16 00:10:58;;;;;;;5.97;5.57;;;23.70;99.90;;;;;;4983998;28;20454;-84
2023/08/16 00:13:38;;;;;;;6.13;5.53;;;22.60;99.90;;;;;;4978053;28;20881;-83
2023/08/16 00:16:24;;;;;;;6.50;5.90;;;22.90;99.90;;;;;;4979209;28;21005;-84
2023/08/16 00:19:10;;;;;;;6.07;5.43;;;23.00;99.90;;;;;;4978073;28;20462;-84
2023/08/16 00:21:44;;;;;;;5.97;5.47;;;22.90;99.90;;;;;;4993908;28;20534;-85
2023/08/16 00:24:27;;;;;;;6.10;5.60;;;22.90;99.90;;;;;;4995068;28;21022;-85
2023/08/16 00:27:06;;;;;;;6.33;5.83;;;23.30;99.90;;;;;;4993790;28;20483;-84
2023/08/16 00:29:53;;;;;;;7.20;6.07;;;23.80;99.90;;;;;;4983508;28;20473;-84
2023/08/16 00:32:37;;;;;;;6.13;5.53;;;23.20;99.90;;;;;;4982489;28;20494;-82
2023/08/16 00:35:20;;;;;;;5.90;5.40;;;23.10;99.90;;;;;;4981287;28;20479;-83
2023/08/16 00:37:49;;;;;;;6.43;5.83;;;23.20;99.90;;;;;;4994927;28;20462;-82
2023/08/16 00:40:27;;;;;;;7.13;6.00;;;23.20;99.90;;;;;;4988269;28;20925;-81
2023/08/16 00:43:04;;;;;;;6.87;6.30;;;23.40;99.90;;;;;;4988862;28;20984;-84
2023/08/16 00:45:55;;;;;;;5.80;5.40;;;23.80;99.90;;;;;;4979244;28;20614;-82
2023/08/16 00:48:37;;;;;;;8.50;7.17;;;23.60;99.90;;;;;;4997738;28;20502;-83
2023/08/16 00:51:09;;;;;;;6.37;5.73;;;22.90;99.90;;;;;;4981484;28;20901;-83
2023/08/16 00:53:58;;;;;;;6.00;5.50;;;22.30;99.90;;;;;;4982508;28;20482;-82
2023/08/16 00:56:46;;;;;;;7.00;6.40;;;22.80;99.90;;;;;;4982904;28;20471;-84
2023/08/16 00:59:22;;;;;;;6.97;6.37;;;22.70;99.90;;;;;;4983372;28;20486;-83
2023/08/16 01:02:08;;;;;;;7.30;6.00;;;22.80;99.90;;;;;;4980930;28;20481;-83
2023/08/16 01:04:43;;;;;;;10.87;9.23;;;23.60;99.90;;;;;;4983454;28;20458;-82
2023/08/16 01:07:49;;;;;;;6.40;5.80;;;22.10;99.90;;;;;;4983833;28;20506;-83
2023/08/16 01:14:17;;;;;;;6.50;5.50;;;22.30;99.90;;;;;;4986419;28;20558;-85
2023/08/16 01:17:02;;;;;;;6.43;5.80;;;22.30;99.90;;;;;;4982382;28;21462;-82
2023/08/16 01:19:37;;;;;;;6.90;6.30;;;22.30;99.90;;;;;;4983893;28;20493;-83
2023/08/16 01:22:40;;;;;;;6.03;5.53;;;22.30;99.90;;;;;;4988142;28;20455;-84
2023/08/16 01:25:39;;;;;;;8.00;6.70;;;22.70;99.90;;;;;;5002384;28;20514;-83
2023/08/16 01:28:55;;;;;;;6.40;5.63;;;22.80;99.90;;;;;;4985355;28;20474;-83
2023/08/16 01:32:02;;;;;;;6.90;5.77;;;22.60;99.90;;;;;;5000992;28;20998;-84
2023/08/16 01:34:51;;;;;;;7.10;6.40;;;22.50;99.90;;;;;;5004406;28;20517;-83
2023/08/16 01:37:37;;;;;;;6.27;5.67;;;22.40;99.90;;;;;;4990465;28;20455;-83
2023/08/16 01:40:48;;;;;;;9.30;6.10;;;22.70;99.90;;;;;;4991008;28;20459;-83
2023/08/16 01:43:44;;;;;;;7.43;6.70;;;22.30;99.90;;;;;;4993389;28;20469;-82
2023/08/16 01:46:33;;;;;;;7.40;6.67;;;22.90;99.90;;;;;;4987914;28;20570;-81
2023/08/16 01:49:23;;;;;;;6.70;6.17;;;22.50;99.90;;;;;;5002426;28;20495;-82
2023/08/16 01:52:19;;;;;;;6.90;6.20;;;23.40;99.90;;;;;;5002273;28;20490;-81
2023/08/16 01:55:38;;;;;;;6.73;5.83;;;22.60;99.90;;;;;;5012101;28;20452;-85
2023/08/16 01:58:12;;;;;;;7.33;6.00;;;22.50;99.90;;;;;;5013913;28;20457;-82
2023/08/16 02:00:52;;;;;;;7.77;7.17;;;22.20;99.90;;;;;;5002221;28;20493;-86
2023/08/16 02:03:33;;;;;;;8.60;7.73;;;22.20;99.90;;;;;;4999491;28;20550;-82
2023/08/16 02:06:11;;;;;;;8.20;7.07;;;21.80;99.90;;;;;;4996040;28;20890;-83
2023/08/16 02:08:54;;;;;;;;;;;;;;;;;;;;;
2023/08/16 02:11:37;;;;;;;8.33;7.53;;;21.70;99.90;;;;;;4990403;28;20463;-82
2023/08/16 02:14:18;;;;;;;8.20;7.50;;;22.40;99.90;;;;;;5000983;28;20596;-83
2023/08/16 02:17:00;;;;;;;7.90;7.30;;;22.40;99.90;;;;;;4988338;28;20491;-83
2023/08/16 02:19:43;;;;;;;8.10;7.40;;;22.50;99.90;;;;;;4996948;28;20467;-86
2023/08/16 02:22:27;;;;;;;8.73;7.93;;;21.80;99.90;;;;;;4991281;28;20506;-83
2023/08/16 02:25:19;;;;;;;8.50;7.70;;;22.20;99.90;;;;;;4920778;29;20434;-81
2023/08/16 02:27:54;;;;;;;9.30;8.40;;;21.90;99.90;;;;;;4931215;29;20580;-83
2023/08/16 02:30:28;;;;;;;8.17;7.47;;;22.10;99.90;;;;;;4921865;29;20465;-83
2023/08/16 02:33:03;;;;;;;7.67;6.93;;;22.60;99.90;;;;;;4929604;29;20464;-81
2023/08/16 02:35:45;;;;;;;9.83;8.77;;;22.10;99.90;;;;;;4928893;28;20524;-83
2023/08/16 02:38:28;;;;;;;9.17;8.20;;;22.10;99.90;;;;;;4949753;28;20458;-84
2023/08/16 02:41:14;;;;;;;8.47;7.70;;;22.30;99.90;;;;;;4950878;28;20481;-83
2023/08/16 02:43:46;;;;;;;9.07;8.27;;;21.30;99.90;;;;;;4935988;28;20492;-84
2023/08/16 02:46:29;;;;;;;8.80;7.87;;;21.90;99.90;;;;;;4932757;28;20727;-82
2023/08/16 02:49:15;;;;;;;9.30;8.40;;;21.90;99.90;;;;;;4929766;29;20544;-85
2023/08/16 02:51:42;;;;;;;9.07;7.90;;;21.90;99.90;;;;;;4930378;29;21069;-84
2023/08/16 02:54:24;;;;;;;9.07;8.20;;;22.10;99.90;;;;;;4924723;29;20466;-83
2023/08/16 02:57:03;;;;;;;9.23;8.37;;;21.60;99.90;;;;;;4912658;29;20477;-83
2023/08/16 02:59:46;;;;;;;9.60;8.67;;;21.80;99.90;;;;;;4908437;29;20545;-82
2023/08/16 03:02:21;;;;;;;10.97;9.87;;;22.10;99.90;;;;;;4955572;28;20442;-82
2023/08/16 03:05:10;;;;;;;9.73;8.83;;;21.70;99.90;;;;;;5004080;28;20494;-83
2023/08/16 03:07:53;;;;;;;10.80;9.60;;;21.70;99.90;;;;;;5007779;28;20877;-83
2023/08/16 03:10:34;;;;;;;9.67;8.87;;;20.60;99.90;;;;;;4986963;28;20505;-83
2023/08/16 03:13:08;;;;;;;10.37;9.30;;;21.80;99.90;;;;;;5006990;28;20559;-83
2023/08/16 03:15:43;;;;;;;9.93;8.93;;;22.10;99.90;;;;;;5013339;28;20529;-84
2023/08/16 03:18:25;;;;;;;11.57;10.40;;;21.80;99.90;;;;;;5006486;28;20451;-82
2023/08/16 03:21:11;;;;;;;11.00;9.67;;;22.70;99.90;;;;;;5019627;28;20493;-84
2023/08/16 03:24:17;;;;;;;10.67;9.63;;;21.60;99.90;;;;;;4976744;28;20470;-82
2023/08/16 03:26:56;;;;;;;10.80;9.90;;;22.20;99.90;;;;;;5000739;28;20471;-84
2023/08/16 03:29:44;;;;;;;11.73;9.93;;;23.30;99.90;;;;;;4999651;28;20506;-83
2023/08/16 03:32:18;;;;;;;11.27;10.20;;;21.80;99.90;;;;;;4997065;28;20459;-81
2023/08/16 03:35:08;;;;;;;10.20;9.20;;;22.10;99.90;;;;;;4981752;28;20455;-85
2023/08/16 03:37:41;;;;;;;12.00;10.80;;;22.10;99.90;;;;;;4996285;28;20450;-82
2023/08/16 03:40:26;;;;;;;10.87;9.87;;;22.30;99.90;;;;;;4980507;28;20905;-83
2023/08/16 03:43:10;;;;;;;11.50;10.37;;;21.60;99.90;;;;;;4983362;28;20466;-84
2023/08/16 03:46:05;;;;;;;;;;;;;;;;;;;;;
2023/08/16 03:48:47;;;;;;;11.23;10.33;;;22.70;99.90;;;;;;4982943;28;21104;-86
2023/08/16 03:51:45;;;;;;;11.97;10.87;;;23.00;99.90;;;;;;4981481;28;20444;-82
2023/08/16 03:54:52;;;;;;;11.47;10.37;;;22.20;99.90;;;;;;4927501;28;20554;-84
2023/08/16 03:57:36;;;;;;;11.60;10.50;;;22.30;99.90;;;;;;4995276;28;20554;-84
2023/08/16 04:00:41;;;;;;;12.10;10.93;;;22.10;99.90;;;;;;4993160;28;20462;-85
2023/08/16 04:03:36;;;;;;;11.83;10.73;;;20.90;99.90;;;;;;4981952;28;20447;-85
2023/08/16 04:06:20;;;;;;;13.00;11.70;;;20.70;99.90;;;;;;4997094;28;20481;-82
2023/08/16 04:09:01;;;;;;;12.67;11.57;;;21.60;99.90;;;;;;4983354;28;20537;-82
2023/08/16 04:12:12;;;;;;;12.80;9.97;;;22.90;99.90;;;;;;4982875;28;20482;-84
2023/08/16 04:15:08;;;;;;;11.17;10.07;;;22.40;99.90;;;;;;4990961;28;20491;-84
2023/08/16 04:18:09;;;;;;;12.47;11.27;;;21.70;99.90;;;;;;4977055;28;20451;-85
2023/08/16 04:20:52;;;;;;;11.60;10.40;;;21.90;99.90;;;;;;4996469;28;20582;-83
2023/08/16 04:40:36;;;;;;;14.50;13.20;;;21.90;99.90;;;;;;5477296;22;21192;-83
2023/08/16 04:43:27;;;;;;;13.03;11.83;;;22.20;99.90;;;;;;5039547;28;20448;-85
2023/08/16 04:46:31;;;;;;;15.17;12.60;;;21.90;99.90;;;;;;5046032;28;20488;-83
2023/08/16 04:49:51;;;;;;;13.27;12.07;;;22.00;99.90;;;;;;5039431;28;20480;-83
2023/08/16 04:52:29;;;;;;;12.37;11.20;;;22.00;99.90;;;;;;5056730;28;20441;-83
2023/08/16 04:57:52;;;;;;;13.30;12.10;;;21.80;99.90;;;;;;4998361;26;20485;-83
2023/08/16 05:00:39;;;;;;;12.70;11.60;;;22.00;99.90;;;;;;5013612;28;20446;-83
2023/08/16 05:03:15;;;;;;;15.10;13.50;;;21.20;99.90;;;;;;5015374;28;20454;-82
2023/08/16 05:06:03;;;;;;;14.80;13.30;;;22.20;99.90;;;;;;5015270;28;20539;-85
2023/08/16 05:08:47;;;;;;;12.37;11.17;;;22.70;99.90;;;;;;5005888;28;20492;-83
2023/08/16 05:11:31;;;;;;;14.33;12.80;;;20.90;99.90;;;;;;5017935;28;20450;-83
2023/08/16 05:14:09;;;;;;;13.47;11.93;;;22.20;99.90;;;;;;5021394;28;20469;-83
2023/08/16 05:17:20;;;;;;;17.60;13.23;;;21.70;99.90;;;;;;5012873;28;20467;-85
2023/08/16 05:20:14;;;;;;;;;;;;;;;;;;;;;
2023/08/16 05:22:53;;;;;;;14.13;12.63;;;22.00;99.90;;;;;;5006795;28;20438;-84
2023/08/16 05:26:13;;;;;;;12.83;11.53;;;21.90;99.90;;;;;;5021060;28;20485;-84
2023/08/16 05:29:25;;;;;;;21.10;15.97;;;22.30;99.90;;;;;;5005079;28;20597;-83
2023/08/16 05:32:21;;;;;;;18.13;15.33;;;21.90;99.90;;;;;;5001077;28;20577;-83
2023/08/16 05:35:11;;;;;;;19.00;14.97;;;22.70;99.90;;;;;;5003510;28;20458;-80
2023/08/16 05:38:04;;;;;;;16.30;14.10;;;22.40;99.90;;;;;;4999071;28;20440;-83
2023/08/16 05:40:41;;;;;;;16.67;13.90;;;21.80;99.90;;;;;;5002115;28;20430;-82
2023/08/16 05:43:33;;;;;;;17.73;15.30;;;22.00;99.90;;;;;;5002998;28;20458;-82
2023/08/16 05:46:26;;;;;;;14.07;12.60;;;22.00;99.90;;;;;;5004411;28;20493;-83
2023/08/16 05:49:10;;;;;;;17.70;13.80;;;22.50;99.90;;;;;;5013639;28;20493;-83
2023/08/16 05:52:07;;;;;;;15.60;14.10;;;22.30;99.90;;;;;;4946177;28;20467;-82
2023/08/16 05:57:46;;;;;;;18.47;13.90;;;22.60;99.90;;;;;;5240340;22;20532;-83
2023/08/16 06:00:29;;;;;;;15.90;13.17;;;22.20;99.90;;;;;;5041033;28;20472;-84
2023/08/16 06:03:21;;;;;;;19.67;14.00;;;23.10;99.90;;;;;;5039997;28;20461;-82
2023/08/16 06:06:07;;;;;;;17.50;14.50;;;21.90;99.90;;;;;;5037413;28;20606;-83
2023/08/16 06:09:10;;;;;;;;;;;;;;;;;;;;;
2023/08/16 06:24:42;;;;;;;18.30;12.57;;;22.10;99.90;;;;;;5039898;28;20461;-84
2023/08/16 06:27:13;;;;;;;19.73;13.30;;;23.10;99.90;;;;;;5051201;28;20481;-82
2023/08/16 06:30:19;;;;;;;16.37;13.97;;;23.00;99.90;;;;;;5027516;28;21783;-83
2023/08/16 06:33:40;;;;;;;15.50;12.17;;;22.70;99.90;;;;;;5023258;28;20527;-82
2023/08/16 06:36:46;;;;;;;18.60;12.37;;;22.30;99.90;;;;;;5013176;22;20549;-84
2023/08/16 06:39:47;;;;;;;16.60;13.93;;;22.60;99.90;;;;;;4968836;28;20510;-84
2023/08/16 06:45:23;;;;;;;15.87;11.40;;;22.10;99.90;;;;;;5273848;23;22231;-83
2023/08/16 06:48:02;;;;;;;15.13;11.97;;;22.40;99.90;;;;;;5275704;23;20466;-82
2023/08/16 06:50:45;;;;;;;18.67;12.30;;;22.00;99.90;;;;;;5036758;28;21847;-83
2023/08/16 06:53:33;;;;;;;;;;;;;;;;;;;;;
2023/08/16 06:56:53;;;;;;;16.33;12.00;;;22.40;99.90;;;;;;5036465;28;21045;-83
2023/08/16 06:59:48;;;;;;;19.93;12.60;;;22.30;99.90;;;;;;5058206;28;20487;-82
2023/08/16 07:02:55;;;;;;;17.43;13.10;;;22.20;99.90;;;;;;5057179;28;20471;-84
2023/08/16 07:05:29;;;;;;;18.20;13.97;;;23.20;99.90;;;;;;5050845;28;20467;-82
2023/08/16 07:08:16;;;;;;;16.47;13.73;;;22.30;99.90;;;;;;5239029;22;20451;-83
2023/08/16 07:10:52;;;;;;;18.73;14.23;;;23.10;99.90;;;;;;5061838;28;20827;-83
2023/08/16 07:13:29;;;;;;;15.60;13.57;;;22.60;99.90;;;;;;5062080;28;20469;-82
2023/08/16 07:15:58;;;;;;;18.97;15.57;;;23.40;99.90;;;;;;5061597;28;20845;-84
2023/08/16 07:18:31;;;;;;;19.60;13.57;;;22.40;99.90;;;;;;5062385;28;20456;-82
2023/08/16 07:21:11;;;;;;;16.63;14.80;;;22.70;99.90;;;;;;5064406;28;20507;-84
2023/08/16 07:23:41;;;;;;;21.30;14.73;;;23.30;99.90;;;;;;5061130;28;20456;-83
2023/08/16 07:26:16;;;;;;;17.20;14.23;;;22.60;99.90;;;;;;5062578;28;20480;-83
2023/08/16 07:29:04;;;;;;;18.67;14.13;;;22.50;99.90;;;;;;5068267;28;20982;-82
2023/08/16 07:34:35;;;;;;;17.17;14.33;;;22.90;99.90;;;;;;5097393;22;20543;-84
2023/08/16 07:37:36;;;;;;;15.93;14.23;;;22.80;99.90;;;;;;5050585;28;20536;-83
2023/08/16 07:40:54;;;;;;;14.03;12.20;;;22.80;99.90;;;;;;5040543;28;20468;-85
2023/08/16 07:43:52;;;;;;;16.23;12.97;;;22.00;99.90;;;;;;5061377;28;20450;-82
2023/08/16 07:46:35;;;;;;;14.43;11.70;;;23.70;99.90;;;;;;5060360;28;20460;-84
2023/08/16 07:49:25;;;;;;;14.87;12.10;;;22.90;99.90;;;;;;5058881;28;20488;-82
2023/08/16 07:52:03;;;;;;;13.50;11.50;;;23.10;99.90;;;;;;5048808;28;20453;-83
2023/08/16 07:54:36;;;;;;;15.90;11.27;;;22.80;99.90;;;;;;5062060;28;20452;-84
2023/08/16 07:57:25;;;;;;;17.33;11.13;;;23.50;99.90;;;;;;5199999;22;20474;-83
2023/08/16 08:00:17;;;;;;;10.50;8.50;;;22.00;99.90;;;;;;5021448;28;20472;-84
2023/08/16 08:03:31;;;;;;;;;;;;;;;;;;;;;
2023/08/16 08:06:21;;;;;;;11.07;7.97;;;23.80;99.90;;;;;;5006603;28;20872;-85
2023/08/16 08:08:56;;;;;;;10.10;7.07;;;23.10;99.90;;;;;;5004957;28;20536;-84
2023/08/16 08:11:53;;;;;;;9.10;6.97;;;23.50;99.90;;;;;;5012969;28;20450;-83
2023/08/16 08:14:36;;;;;;;9.23;7.17;;;23.20;99.90;;;;;;5000864;28;20453;-83
2023/08/16 08:17:28;;;;;;;7.13;6.20;;;22.40;99.90;;;;;;4976525;28;20488;-82
2023/08/16 08:20:05;;;;;;;7.17;6.47;;;23.70;99.90;;;;;;4991396;28;20532;-83
2023/08/16 08:22:50;;;;;;;9.10;8.10;;;23.70;99.90;;;;;;4995604;28;20493;-82
2023/08/16 08:25:38;;;;;;;7.33;6.17;;;23.20;99.90;;;;;;5007202;28;20482;-81
2023/08/16 08:28:24;;;;;;;7.67;6.03;;;24.30;99.90;;;;;;5012191;28;20466;-83
2023/08/16 08:30:57;;;;;;;7.70;6.77;;;23.40;99.90;;;;;;4999030;28;21147;-82
2023/08/16 08:33:53;;;;;;;6.77;5.87;;;23.60;99.90;;;;;;4996652;28;20488;-84
2023/08/16 08:36:29;;;;;;;10.67;7.50;;;23.90;99.90;;;;;;4994590;28;20496;-86
2023/08/16 08:39:05;;;;;;;10.73;8.23;;;23.70;99.90;;;;;;4996440;28;20462;-83
2023/08/16 08:41:37;;;;;;;7.43;6.80;;;23.40;99.90;;;;;;4995173;28;20469;-83
2023/08/16 08:44:32;;;;;;;10.43;9.40;;;23.70;99.90;;;;;;5010563;28;20462;-83
2023/08/16 08:47:12;;;;;;;11.10;9.97;;;24.00;99.90;;;;;;4997456;28;20559;-83
2023/08/16 08:49:58;;;;;;;;;;;;;;;;;;;;;
2023/08/16 08:52:34;;;;;;;8.10;7.10;;;23.90;99.90;;;;;;4996347;28;20470;-82
2023/08/16 08:55:39;;;;;;;;;;;;;;;;;;;;;
2023/08/16 08:58:13;;;;;;;7.90;7.10;;;24.20;99.90;;;;;;4996561;28;20453;-83
2023/08/16 09:01:15;;;;;;;8.90;7.67;;;23.70;99.90;;;;;;4998811;28;20478;-83
2023/08/16 09:03:49;;;;;;;8.60;7.80;;;23.30;99.90;;;;;;4992121;28;20454;-82
2023/08/16 09:06:32;;;;;;;10.13;7.80;;;24.10;99.90;;;;;;5004743;28;20474;-83
2023/08/16 09:09:13;;;;;;;9.60;8.77;;;24.30;99.90;;;;;;5002556;28;20771;-85
2023/08/16 09:11:48;;;;;;;8.57;7.77;;;24.00;99.90;;;;;;5003754;28;20462;-82
2023/08/16 09:14:39;;;;;;;9.77;8.87;;;24.80;99.90;;;;;;5006709;28;20451;-82
2023/08/16 09:17:30;;;;;;;8.87;7.70;;;23.30;99.90;;;;;;4996979;28;20474;-83
2023/08/16 09:20:19;;;;;;;8.77;7.97;;;24.50;99.90;;;;;;5004962;28;20462;-83
2023/08/16 09:23:19;;;;;;;11.63;8.07;;;24.40;99.90;;;;;;5005350;28;20486;-84
2023/08/16 09:26:21;;;;;;;8.27;7.47;;;24.30;99.90;;;;;;5013847;28;20489;-79
2023/08/16 09:29:03;;;;;;;8.10;7.30;;;23.80;99.90;;;;;;5007627;28;20486;-81
2023/08/16 09:31:51;;;;;;;8.40;7.47;;;23.60;99.90;;;;;;5007512;28;20469;-82
2023/08/16 09:34:31;;;;;;;9.10;8.27;;;23.80;99.90;;;;;;5012469;28;20537;-83
2023/08/16 09:37:13;;;;;;;8.03;7.23;;;24.50;99.90;;;;;;5011793;28;20604;-83
2023/08/16 09:39:54;;;;;;;9.87;8.97;;;24.80;99.90;;;;;;5010938;28;20462;-81
2023/08/16 09:42:40;;;;;;;10.30;9.10;;;24.50;99.90;;;;;;5003627;28;20549;-83
2023/08/16 09:45:13;;;;;;;11.27;10.00;;;24.30;99.90;;;;;;5002652;28;20486;-83
2023/08/16 09:47:55;;;;;;;16.00;10.03;;;24.40;99.90;;;;;;5002843;28;20840;-82
2023/08/16 09:50:55;;;;;;;12.50;11.13;;;24.40;99.90;;;;;;5004361;28;20486;-83
2023/08/16 09:53:38;;;;;;;13.20;11.73;;;25.00;99.90;;;;;;5002208;28;20461;-82
2023/08/16 09:56:16;;;;;;;10.77;9.70;;;24.50;99.90;;;;;;5005628;28;20517;-82
2023/08/16 09:59:07;;;;;;;13.13;10.63;;;25.00;99.90;;;;;;5004349;28;20470;-83
2023/08/16 10:01:45;;;;;;;11.03;9.93;;;24.10;99.90;;;;;;5022093;28;20500;-83
2023/08/16 10:04:51;;;;;;;8.87;8.07;;;25.10;99.90;;;;;;5007849;28;20819;-81
2023/08/16 10:07:47;;;;;;;7.50;6.77;;;25.70;99.90;;;;;;5004973;28;20482;-84
2023/08/16 10:10:48;;;;;;;7.73;7.03;;;28.50;99.60;;;;;;5008307;28;20493;-84
2023/08/16 10:14:08;;;;;;;7.33;6.73;;;28.80;95.00;;;;;;5005847;28;21018;-84
2023/08/16 10:17:18;;;;;;;8.07;6.50;;;29.40;93.90;;;;;;4956447;28;20495;-84
2023/08/16 10:20:24;;;;;;;6.07;5.67;;;29.70;92.70;;;;;;4947447;28;20477;-83
2023/08/16 10:23:43;;;;;;;5.50;5.10;;;29.50;92.90;;;;;;4961022;28;20451;-81
2023/08/16 10:29:52;;;;;;;6.23;5.63;;;28.60;93.20;;;;;;5008497;28;20480;-82
2023/08/16 10:32:59;;;;;;;6.40;5.90;;;29.20;93.40;;;;;;5010021;28;20442;-85
2023/08/16 10:36:24;;;;;;;6.50;5.83;;;29.60;94.50;;;;;;5009979;28;20473;-84
2023/08/16 10:39:35;;;;;;;5.93;5.40;;;28.90;94.20;;;;;;5008345;28;20567;-81
2023/08/16 10:42:59;;;;;;;4.87;4.40;;;29.30;92.20;;;;;;5004572;28;20482;-83
2023/08/16 10:52:20;;;;;;;6.40;5.80;;;28.30;93.50;;;;;;5000009;28;20591;-82
2023/08/16 11:06:29;;;;;;;6.63;6.13;;;29.20;90.90;;;;;;5833897;22;20538;-85
2023/08/16 11:09:17;;;;;;;10.40;9.23;;;29.30;91.80;;;;;;5078709;28;20470;-84
2023/08/16 11:20:32;;;;;;;12.83;9.73;;;29.10;93.00;;;;;;5639219;22;20507;-84
2023/08/16 11:23:24;;;;;;;12.87;11.57;;;29.30;93.30;;;;;;5052045;28;20554;-82
2023/08/16 11:26:12;;;;;;;11.40;10.40;;;28.60;95.20;;;;;;5053836;28;20481;-84
2023/08/16 11:28:59;;;;;;;11.43;10.20;;;28.10;95.40;;;;;;5271198;22;21019;-84
2023/08/16 11:31:48;;;;;;;10.47;9.50;;;26.70;96.60;;;;;;5043899;28;20532;-84
2023/08/16 11:34:47;;;;;;;10.27;9.20;;;28.20;97.50;;;;;;5033191;28;20925;-82
2023/08/16 11:37:28;;;;;;;10.27;9.27;;;28.20;96.50;;;;;;5019109;28;20478;-84
2023/08/16 11:49:14;;;;;;;11.40;10.20;;;29.30;92.60;;;;;;5042128;28;20522;-85
2023/08/16 11:52:48;;;;;;;11.50;10.30;;;29.60;92.90;;;;;;5180318;22;20511;-82
2023/08/16 11:56:15;;;;;;;10.30;9.30;;;29.00;93.20;;;;;;5043509;28;20472;-81
2023/08/16 11:59:18;;;;;;;12.77;11.57;;;28.60;94.10;;;;;;5034806;28;20423;-83
2023/08/16 12:01:55;;;;;;;11.50;10.50;;;28.20;94.60;;;;;;5035309;28;20773;-82
2023/08/16 12:05:05;;;;;;;11.87;10.67;;;27.80;95.80;;;;;;5037358;28;20507;-83
2023/08/16 12:12:01;;;;;;;12.07;10.90;;;28.00;94.70;;;;;;5025523;28;20563;-81
2023/08/16 12:18:27;;;;;;;13.10;11.80;;;28.30;94.60;;;;;;4972993;28;20500;-83
2023/08/16 12:21:20;;;;;;;13.70;12.40;;;28.10;94.40;;;;;;4998423;28;20478;-81
2023/08/16 12:28:03;;;;;;;13.20;12.00;;;28.80;94.20;;;;;;5114058;22;20491;-86
2023/08/16 12:31:29;;;;;;;13.00;11.77;;;28.80;94.20;;;;;;5065569;28;20485;-86
2023/08/16 12:34:12;;;;;;;13.50;12.10;;;28.40;94.30;;;;;;5061848;28;20456;-85
2023/08/16 12:36:48;;;;;;;13.50;12.30;;;28.90;94.30;;;;;;5057431;28;21054;-82
2023/08/16 12:39:44;;;;;;;11.97;10.77;;;29.30;93.80;;;;;;5048035;28;20456;-83
2023/08/16 12:42:50;;;;;;;12.13;10.93;;;28.30;92.40;;;;;;5044662;28;20442;-84
2023/08/16 12:45:34;;;;;;;11.83;10.63;;;29.40;93.50;;;;;;5034125;28;20475;-82
2023/08/16 12:48:34;;;;;;;11.57;10.33;;;30.40;91.90;;;;;;5037977;28;20950;-83
2023/08/16 12:51:42;;;;;;;11.13;10.13;;;30.00;91.50;;;;;;5049502;28;20533;-82
2023/08/16 12:54:44;;;;;;;11.07;10.00;;;30.10;91.10;;;;;;5045892;28;20531;-83
2023/08/16 12:57:30;;;;;;;12.17;11.07;;;29.20;91.60;;;;;;5049154;28;21057;-83
2023/08/16 13:00:14;;;;;;;11.53;10.53;;;29.20;92.80;;;;;;5047561;28;20480;-85
2023/08/16 13:03:13;;;;;;;10.30;9.27;;;29.50;93.00;;;;;;5048570;28;20555;-83
2023/08/16 13:06:36;;;;;;;11.60;10.50;;;29.40;92.30;;;;;;5048619;28;20453;-85
2023/08/16 13:12:50;;;;;;;11.33;10.33;;;30.80;91.80;;;;;;4932636;29;20468;-85
2023/08/16 13:16:26;;;;;;;12.37;11.27;;;29.70;90.60;;;;;;4946833;28;20537;-84
2023/08/16 13:29:29;;;;;;;11.73;10.73;;;28.40;90.90;;;;;;5040798;22;20943;-85
2023/08/16 13:33:01;;;;;;;14.00;11.00;;;28.70;91.50;;;;;;4931654;28;20500;-84
2023/08/16 13:36:42;;;;;;;12.00;10.80;;;29.30;92.50;;;;;;4990815;22;20570;-84
2023/08/16 13:39:43;;;;;;;11.20;10.20;;;28.60;92.00;;;;;;4974463;28;20520;-85
2023/08/16 13:43:05;;;;;;;;;;;;;;;;;;;;;
2023/08/16 14:30:41;;;;;;;;;;;;;;;;;;;;;
2023/08/16 15:18:16;;;;;;;9.23;8.40;;;28.60;92.90;;;;;;4316110;22;20484;-83
2023/08/16 15:25:16;;;;;;;9.70;8.90;;;28.80;92.90;;;;;;4913838;28;20490;-86
2023/08/16 15:31:14;;;;;;;10.30;9.30;;;28.30;92.90;;;;;;5038906;28;20568;-84
2023/08/16 15:38:34;;;;;;;9.30;8.50;;;27.80;94.00;;;;;;4994027;28;20502;-82
2023/08/16 15:45:32;;;;;;;10.07;9.17;;;28.20;93.40;;;;;;4985829;28;20407;-83
2023/08/16 15:54:23;;;;;;;9.37;8.47;;;28.20;93.50;;;;;;5103216;22;20539;-85
2023/08/16 15:57:35;;;;;;;;;;;;;;;;;;;;;
2023/08/16 16:03:30;;;;;;;7.97;7.27;;;28.00;93.60;;;;;;5442602;22;20553;-85
2023/08/16 16:06:28;;;;;;;7.83;7.23;;;27.60;94.20;;;;;;5367056;22;20515;-83
2023/08/16 16:10:12;;;;;;;7.70;7.10;;;27.80;93.80;;;;;;5021068;28;21242;-83
2023/08/16 16:13:24;;;;;;;8.50;7.70;;;28.00;94.70;;;;;;5389241;22;20450;31
2023/08/16 16:22:08;;;;;;;9.07;8.23;;;27.50;95.10;;;;;;5034300;28;20485;-82
2023/08/16 16:30:10;;;;;;;7.33;6.63;;;27.50;95.30;;;;;;5204954;22;20484;-85
2023/08/16 16:36:18;;;;;;;8.30;7.47;;;27.60;96.30;;;;;;5025329;28;20462;-85
2023/08/16 16:39:17;;;;;;;7.90;7.10;;;27.30;96.60;;;;;;5011150;28;20453;-84
2023/08/16 16:48:00;;;;;;;;;;;;;;;;;;;;;
2023/08/16 16:51:31;;;;;;;7.30;6.60;;;27.20;95.80;;;;;;5224721;22;20503;-87
2023/08/16 16:54:18;;;;;;;7.47;6.77;;;28.00;95.80;;;;;;4984299;28;20483;-84
2023/08/16 18:00:13;;;;;;;6.10;5.60;;;26.20;98.40;;;;;;4966624;28;20504;-85
2023/08/16 18:09:51;;;;;;;6.43;4.90;;;26.30;98.30;;;;;;5018638;28;20446;-84
2023/08/16 18:15:59;;;;;;;5.20;4.70;;;26.00;97.90;;;;;;5040834;28;20494;-83
2023/08/16 18:18:53;;;;;;;4.80;4.33;;;26.00;98.40;;;;;;5042674;28;20477;-84
2023/08/16 18:26:58;;;;;;;5.20;4.80;;;25.90;97.90;;;;;;5616168;22;20482;-84
2023/08/16 18:38:02;;;;;;;4.80;4.40;;;25.50;98.80;;;;;;5007971;28;20529;-84
2023/08/16 19:02:30;;;;;;;4.90;4.50;;;25.70;98.30;;;;;;5120814;22;20517;-87
2023/08/16 19:08:31;;;;;;;5.17;4.67;;;25.50;99.00;;;;;;5544441;22;20516;-83
2023/08/16 19:16:36;;;;;;;6.07;4.63;;;25.20;99.90;;;;;;5207503;22;20513;-83
2023/08/16 19:19:17;;;;;;;8.13;4.37;;;25.10;99.90;;;;;;4992315;28;20440;-84
2023/08/16 19:22:18;;;;;;;5.83;4.90;;;25.50;99.90;;;;;;5004096;28;20478;-84
2023/08/16 19:25:07;;;;;;;5.50;4.97;;;24.70;99.90;;;;;;5512724;22;20509;-83
2023/08/16 19:27:48;;;;;;;4.97;4.57;;;25.50;99.90;;;;;;5021076;28;20481;-83
2023/08/16 19:30:22;;;;;;;5.10;4.70;;;24.90;99.90;;;;;;5025833;28;20497;-84
2023/08/16 19:33:01;;;;;;;6.33;5.93;;;25.60;99.90;;;;;;5027151;28;20541;-85
2023/08/16 19:35:29;;;;;;;5.20;4.70;;;25.60;99.90;;;;;;5030565;28;20497;-84
2023/08/16 19:38:03;;;;;;;5.87;5.37;;;25.60;99.90;;;;;;5022735;28;20538;-83
2023/08/16 19:40:50;;;;;;;5.20;4.73;;;24.20;99.90;;;;;;5017780;28;20485;-83
2023/08/16 19:43:39;;;;;;;4.40;4.00;;;25.50;99.90;;;;;;5017245;28;20465;-83
2023/08/16 19:46:16;;;;;;;5.03;4.50;;;25.60;99.90;;;;;;5021620;28;20550;-84
2023/08/16 19:49:19;;;;;;;5.33;4.83;;;25.00;99.90;;;;;;5028349;28;20573;-86
2023/08/16 19:56:48;;;;;;;;;;;;;;;;;;;;;
2023/08/16 19:59:53;;;;;;;5.37;4.87;;;24.60;99.90;;;;;;4976460;28;20454;-82
2023/08/16 20:03:26;;;;;;;6.00;4.23;;;24.70;99.90;;;;;;5019019;28;20561;-82
2023/08/16 20:07:03;;;;;;;;;;;;;;;;;;;;;
2023/08/16 20:13:51;;;;;;;5.93;4.20;;;24.60;99.90;;;;;;5009792;28;20449;-83
2023/08/16 20:21:57;;;;;;;5.37;4.83;;;24.40;99.90;;;;;;5155914;23;20590;-81
2023/08/16 20:25:06;;;;;;;5.70;5.20;;;24.60;99.90;;;;;;5024368;28;20488;-83
2023/08/16 20:28:33;;;;;;;6.87;4.83;;;24.40;99.90;;;;;;5022828;28;20484;-84
2023/08/16 20:31:42;;;;;;;4.93;4.43;;;24.60;99.90;;;;;;5019711;28;20541;-86
2023/08/16 20:35:20;;;;;;;4.90;4.57;;;24.50;99.90;;;;;;5021648;28;20429;-83
2023/08/16 20:48:34;;;;;;;5.53;5.00;;;24.30;99.90;;;;;;999952;22;20999;-83
2023/08/16 20:52:10;;;;;;;5.50;4.83;;;24.40;99.90;;;;;;5025668;28;20479;-85
2023/08/16 21:12:59;;;;;;;6.00;5.37;;;24.10;99.90;;;;;;1109375;26;20784;-83
2023/08/16 21:25:28;;;;;;;5.20;4.80;;;24.10;99.90;;;;;;5000321;28;20497;-84
2023/08/16 21:29:04;;;;;;;6.43;5.73;;;24.40;99.90;;;;;;4981101;28;20526;-85
2023/08/16 21:32:13;;;;;;;6.37;5.73;;;24.30;99.90;;;;;;4968760;28;20492;-84
2023/08/16 21:34:52;;;;;;;5.80;5.30;;;23.80;99.90;;;;;;4974496;28;20959;-80
2023/08/16 21:38:30;;;;;;;5.10;4.70;;;24.00;99.90;;;;;;4981641;28;20456;-85
2023/08/16 21:41:13;;;;;;;5.83;5.33;;;24.10;99.90;;;;;;4978396;28;21116;-83
2023/08/16 21:44:26;;;;;;;7.47;6.00;;;24.20;99.90;;;;;;4980619;28;20487;-84
2023/08/16 21:47:14;;;;;;;5.43;4.93;;;23.80;99.90;;;;;;4980389;28;20479;-84
2023/08/16 21:49:53;;;;;;;5.33;4.83;;;24.00;99.90;;;;;;4981423;28;20463;-84
2023/08/16 21:52:38;;;;;;;5.40;5.00;;;24.50;99.90;;;;;;4978553;28;21689;-83